Station: EBLB - 29/11/2020 16:20Z (il y a 10 minutes)
EBLB 291620Z AUTO VRB01KT 9000 SCT009/// M03/M04 Q1023 GRN
Vent de direction variable: 1 kt
Visibilité: 9000 m
Ciel 50% couvert à 900 pieds
Température: -03ºC - Point de rosée: -04ºC - QNH: 1023 hPa
Code couleur militaire: GRN (conditions IMC ou marginales)